Rzhev, Russia
Current Conditions -  °F | °C
As of 9:00 PM on Sunday 25 Jan 2015 (Local Time) from UUBW Reporting Station
Clear Clear  
Wind Chill: -13°   Ceiling: Unl
Heat Index:   Visibility: 6mi
Dew Point: -2°   Wind: 9mph
Humidity: 85%   Direction: 110°ESE
Pressure: 30.48"   Gusts: NA
Location:  56.26°N, 34.33°E
Report Text: UUBW 251800Z 11004MPS CAVOK M17/M19 Q1032 NOSIG RMK SC0.38
Loading
Personal Weather Stations






























Interactive Weather Map New forecast layout! Learn more

10-Day Weather Forecast

Advertisements
Track Severe Weather on mobile